sensor_id;sensor_type;location;lat;lon;timestamp;P1;durP1;ratioP1;P2;durP2;ratioP2
76459;SDS011;65299;46.084;18.762;2024-01-16T00:01:31;4.95;;;1.98;;
76459;SDS011;65299;46.084;18.762;2024-01-16T00:04:31;5.37;;;2.40;;
76459;SDS011;65299;46.084;18.762;2024-01-16T00:07:32;4.40;;;2.00;;
76459;SDS011;65299;46.084;18.762;2024-01-16T00:10:34;6.72;;;2.50;;
76459;SDS011;65299;46.084;18.762;2024-01-16T00:13:35;8.03;;;2.63;;
76459;SDS011;65299;46.084;18.762;2024-01-16T00:16:47;5.20;;;2.78;;
76459;SDS011;65299;46.084;18.762;2024-01-16T00:19:48;7.47;;;3.27;;
76459;SDS011;65299;46.084;18.762;2024-01-16T00:22:49;5.18;;;2.38;;
76459;SDS011;65299;46.084;18.762;2024-01-16T00:25:49;5.13;;;2.47;;
76459;SDS011;65299;46.084;18.762;2024-01-16T00:28:49;7.70;;;2.87;;
76459;SDS011;65299;46.084;18.762;2024-01-16T00:31:50;10.73;;;3.33;;
76459;SDS011;65299;46.084;18.762;2024-01-16T00:34:50;3.80;;;2.23;;
76459;SDS011;65299;46.084;18.762;2024-01-16T00:37:51;6.47;;;2.65;;
76459;SDS011;65299;46.084;18.762;2024-01-16T00:40:52;4.90;;;2.07;;
76459;SDS011;65299;46.084;18.762;2024-01-16T00:43:52;5.43;;;2.60;;
76459;SDS011;65299;46.084;18.762;2024-01-16T00:46:53;5.73;;;2.40;;
76459;SDS011;65299;46.084;18.762;2024-01-16T00:49:53;6.28;;;2.92;;
76459;SDS011;65299;46.084;18.762;2024-01-16T00:52:54;5.77;;;2.47;;
76459;SDS011;65299;46.084;18.762;2024-01-16T00:55:54;5.43;;;2.67;;
76459;SDS011;65299;46.084;18.762;2024-01-16T00:58:55;10.80;;;2.90;;
76459;SDS011;65299;46.084;18.762;2024-01-16T01:01:55;7.05;;;2.92;;
76459;SDS011;65299;46.084;18.762;2024-01-16T01:04:55;6.73;;;2.53;;
76459;SDS011;65299;46.084;18.762;2024-01-16T01:07:56;7.57;;;2.90;;
76459;SDS011;65299;46.084;18.762;2024-01-16T01:10:57;3.53;;;1.45;;
76459;SDS011;65299;46.084;18.762;2024-01-16T01:13:57;6.73;;;2.50;;
76459;SDS011;65299;46.084;18.762;2024-01-16T01:16:58;5.43;;;2.03;;
76459;SDS011;65299;46.084;18.762;2024-01-16T01:19:59;4.97;;;1.73;;
76459;SDS011;65299;46.084;18.762;2024-01-16T01:22:59;5.83;;;2.87;;
76459;SDS011;65299;46.084;18.762;2024-01-16T01:26:00;5.03;;;2.38;;
76459;SDS011;65299;46.084;18.762;2024-01-16T01:29:00;6.17;;;2.73;;
76459;SDS011;65299;46.084;18.762;2024-01-16T01:32:01;6.23;;;2.57;;
76459;SDS011;65299;46.084;18.762;2024-01-16T01:35:01;6.40;;;2.15;;
76459;SDS011;65299;46.084;18.762;2024-01-16T01:38:01;8.73;;;2.87;;
76459;SDS011;65299;46.084;18.762;2024-01-16T01:41:02;8.73;;;2.90;;
76459;SDS011;65299;46.084;18.762;2024-01-16T01:44:02;6.80;;;2.77;;
76459;SDS011;65299;46.084;18.762;2024-01-16T01:47:03;6.78;;;2.45;;
76459;SDS011;65299;46.084;18.762;2024-01-16T01:50:05;5.63;;;2.38;;
76459;SDS011;65299;46.084;18.762;2024-01-16T01:53:08;7.37;;;2.60;;
76459;SDS011;65299;46.084;18.762;2024-01-16T01:56:10;5.53;;;2.33;;
76459;SDS011;65299;46.084;18.762;2024-01-16T01:59:14;3.63;;;1.85;;
76459;SDS011;65299;46.084;18.762;2024-01-16T02:02:18;5.18;;;1.88;;
76459;SDS011;65299;46.084;18.762;2024-01-16T02:05:20;5.50;;;2.42;;
76459;SDS011;65299;46.084;18.762;2024-01-16T02:08:21;6.63;;;2.27;;
76459;SDS011;65299;46.084;18.762;2024-01-16T02:11:22;5.55;;;2.00;;
76459;SDS011;65299;46.084;18.762;2024-01-16T02:14:22;5.80;;;2.50;;
76459;SDS011;65299;46.084;18.762;2024-01-16T02:17:23;5.13;;;2.27;;
76459;SDS011;65299;46.084;18.762;2024-01-16T02:20:23;4.75;;;2.08;;
76459;SDS011;65299;46.084;18.762;2024-01-16T02:23:26;5.73;;;2.17;;
76459;SDS011;65299;46.084;18.762;2024-01-16T02:26:28;2.95;;;1.38;;
76459;SDS011;65299;46.084;18.762;2024-01-16T02:29:30;6.13;;;2.10;;
76459;SDS011;65299;46.084;18.762;2024-01-16T02:32:30;6.18;;;1.83;;
76459;SDS011;65299;46.084;18.762;2024-01-16T02:35:31;6.87;;;2.70;;
76459;SDS011;65299;46.084;18.762;2024-01-16T02:38:31;6.57;;;2.30;;
76459;SDS011;65299;46.084;18.762;2024-01-16T02:41:32;5.80;;;2.23;;
76459;SDS011;65299;46.084;18.762;2024-01-16T02:44:32;4.15;;;1.95;;
76459;SDS011;65299;46.084;18.762;2024-01-16T02:47:33;6.20;;;2.27;;
76459;SDS011;65299;46.084;18.762;2024-01-16T02:50:33;4.10;;;1.90;;
76459;SDS011;65299;46.084;18.762;2024-01-16T02:53:34;4.47;;;1.90;;
76459;SDS011;65299;46.084;18.762;2024-01-16T02:56:34;4.83;;;1.80;;
76459;SDS011;65299;46.084;18.762;2024-01-16T02:59:35;5.30;;;1.97;;
76459;SDS011;65299;46.084;18.762;2024-01-16T03:02:35;4.95;;;1.85;;
76459;SDS011;65299;46.084;18.762;2024-01-16T03:05:36;4.00;;;2.07;;
76459;SDS011;65299;46.084;18.762;2024-01-16T03:08:36;5.40;;;1.80;;
76459;SDS011;65299;46.084;18.762;2024-01-16T03:11:36;3.38;;;1.45;;
76459;SDS011;65299;46.084;18.762;2024-01-16T03:14:37;5.77;;;1.97;;
76459;SDS011;65299;46.084;18.762;2024-01-16T03:17:39;4.60;;;2.00;;
76459;SDS011;65299;46.084;18.762;2024-01-16T03:20:39;3.87;;;1.33;;
76459;SDS011;65299;46.084;18.762;2024-01-16T03:23:39;4.63;;;1.47;;
76459;SDS011;65299;46.084;18.762;2024-01-16T03:26:40;2.07;;;1.27;;
76459;SDS011;65299;46.084;18.762;2024-01-16T03:29:42;4.18;;;1.77;;
76459;SDS011;65299;46.084;18.762;2024-01-16T03:32:42;5.63;;;1.80;;
76459;SDS011;65299;46.084;18.762;2024-01-16T03:35:43;4.72;;;2.05;;
76459;SDS011;65299;46.084;18.762;2024-01-16T03:38:43;4.83;;;2.17;;
76459;SDS011;65299;46.084;18.762;2024-01-16T03:41:44;5.00;;;1.50;;
76459;SDS011;65299;46.084;18.762;2024-01-16T03:44:44;2.83;;;1.38;;
76459;SDS011;65299;46.084;18.762;2024-01-16T03:47:45;10.70;;;4.00;;
76459;SDS011;65299;46.084;18.762;2024-01-16T03:50:45;6.47;;;2.87;;
76459;SDS011;65299;46.084;18.762;2024-01-16T03:53:47;8.50;;;4.25;;
76459;SDS011;65299;46.084;18.762;2024-01-16T03:56:48;13.07;;;6.28;;
76459;SDS011;65299;46.084;18.762;2024-01-16T03:59:48;6.33;;;2.60;;
76459;SDS011;65299;46.084;18.762;2024-01-16T04:02:49;8.70;;;3.70;;
76459;SDS011;65299;46.084;18.762;2024-01-16T04:05:49;9.47;;;4.43;;
76459;SDS011;65299;46.084;18.762;2024-01-16T04:08:50;19.00;;;10.40;;
76459;SDS011;65299;46.084;18.762;2024-01-16T04:11:50;28.57;;;14.37;;
76459;SDS011;65299;46.084;18.762;2024-01-16T04:14:51;8.23;;;3.57;;
76459;SDS011;65299;46.084;18.762;2024-01-16T04:17:51;6.57;;;2.72;;
76459;SDS011;65299;46.084;18.762;2024-01-16T04:20:51;6.17;;;2.47;;
76459;SDS011;65299;46.084;18.762;2024-01-16T04:23:52;6.53;;;2.60;;
76459;SDS011;65299;46.084;18.762;2024-01-16T04:26:52;7.87;;;3.03;;
76459;SDS011;65299;46.084;18.762;2024-01-16T04:29:53;10.67;;;4.40;;
76459;SDS011;65299;46.084;18.762;2024-01-16T04:32:53;22.70;;;8.15;;
76459;SDS011;65299;46.084;18.762;2024-01-16T04:35:53;17.37;;;6.67;;
76459;SDS011;65299;46.084;18.762;2024-01-16T04:38:54;11.10;;;5.77;;
76459;SDS011;65299;46.084;18.762;2024-01-16T04:41:54;9.07;;;3.78;;
76459;SDS011;65299;46.084;18.762;2024-01-16T04:44:55;8.90;;;3.77;;
76459;SDS011;65299;46.084;18.762;2024-01-16T04:47:55;9.80;;;3.87;;
76459;SDS011;65299;46.084;18.762;2024-01-16T04:50:56;12.47;;;4.67;;
76459;SDS011;65299;46.084;18.762;2024-01-16T04:53:57;15.07;;;5.07;;
76459;SDS011;65299;46.084;18.762;2024-01-16T04:56:57;11.93;;;4.70;;
76459;SDS011;65299;46.084;18.762;2024-01-16T04:59:57;11.00;;;4.18;;
76459;SDS011;65299;46.084;18.762;2024-01-16T05:02:58;13.43;;;4.87;;
76459;SDS011;65299;46.084;18.762;2024-01-16T05:05:59;9.03;;;4.07;;
76459;SDS011;65299;46.084;18.762;2024-01-16T05:08:59;12.55;;;6.30;;
76459;SDS011;65299;46.084;18.762;2024-01-16T05:12:00;13.17;;;5.40;;
76459;SDS011;65299;46.084;18.762;2024-01-16T05:15:00;13.43;;;4.30;;
76459;SDS011;65299;46.084;18.762;2024-01-16T05:18:01;15.03;;;6.37;;
76459;SDS011;65299;46.084;18.762;2024-01-16T05:21:01;16.37;;;6.27;;
76459;SDS011;65299;46.084;18.762;2024-01-16T05:24:04;14.57;;;5.75;;
76459;SDS011;65299;46.084;18.762;2024-01-16T05:27:05;9.97;;;4.33;;
76459;SDS011;65299;46.084;18.762;2024-01-16T05:30:05;30.50;;;13.37;;
76459;SDS011;65299;46.084;18.762;2024-01-16T05:33:08;14.13;;;6.25;;
76459;SDS011;65299;46.084;18.762;2024-01-16T05:36:08;15.40;;;5.95;;
76459;SDS011;65299;46.084;18.762;2024-01-16T05:39:09;21.03;;;7.80;;
76459;SDS011;65299;46.084;18.762;2024-01-16T05:42:11;12.27;;;5.57;;
76459;SDS011;65299;46.084;18.762;2024-01-16T05:45:11;13.07;;;5.00;;
76459;SDS011;65299;46.084;18.762;2024-01-16T05:48:13;11.55;;;4.47;;
76459;SDS011;65299;46.084;18.762;2024-01-16T05:51:14;10.33;;;4.07;;
76459;SDS011;65299;46.084;18.762;2024-01-16T05:54:14;9.52;;;3.60;;
76459;SDS011;65299;46.084;18.762;2024-01-16T05:57:15;8.87;;;3.87;;
76459;SDS011;65299;46.084;18.762;2024-01-16T06:00:15;11.20;;;3.97;;
76459;SDS011;65299;46.084;18.762;2024-01-16T06:03:18;8.57;;;3.33;;
76459;SDS011;65299;46.084;18.762;2024-01-16T06:06:18;9.75;;;3.47;;
76459;SDS011;65299;46.084;18.762;2024-01-16T06:09:19;6.00;;;2.13;;
76459;SDS011;65299;46.084;18.762;2024-01-16T06:12:19;3.25;;;1.27;;
76459;SDS011;65299;46.084;18.762;2024-01-16T06:15:20;7.13;;;2.53;;
76459;SDS011;65299;46.084;18.762;2024-01-16T06:18:20;9.77;;;5.07;;
76459;SDS011;65299;46.084;18.762;2024-01-16T06:21:21;9.10;;;3.60;;
76459;SDS011;65299;46.084;18.762;2024-01-16T06:24:22;6.13;;;2.78;;
76459;SDS011;65299;46.084;18.762;2024-01-16T06:27:23;12.97;;;5.03;;
76459;SDS011;65299;46.084;18.762;2024-01-16T06:30:23;9.52;;;4.65;;
76459;SDS011;65299;46.084;18.762;2024-01-16T06:33:23;9.60;;;3.17;;
76459;SDS011;65299;46.084;18.762;2024-01-16T06:36:25;5.10;;;2.47;;
76459;SDS011;65299;46.084;18.762;2024-01-16T06:39:26;8.37;;;3.57;;
76459;SDS011;65299;46.084;18.762;2024-01-16T06:42:30;9.63;;;3.30;;
76459;SDS011;65299;46.084;18.762;2024-01-16T06:45:30;7.15;;;2.85;;
76459;SDS011;65299;46.084;18.762;2024-01-16T06:48:30;9.87;;;4.03;;
76459;SDS011;65299;46.084;18.762;2024-01-16T06:51:31;7.97;;;2.87;;
76459;SDS011;65299;46.084;18.762;2024-01-16T06:54:31;17.17;;;5.10;;
76459;SDS011;65299;46.084;18.762;2024-01-16T06:57:32;10.23;;;4.00;;
76459;SDS011;65299;46.084;18.762;2024-01-16T07:00:32;8.27;;;2.90;;
76459;SDS011;65299;46.084;18.762;2024-01-16T07:03:33;10.83;;;4.27;;
76459;SDS011;65299;46.084;18.762;2024-01-16T07:06:33;7.97;;;2.63;;
76459;SDS011;65299;46.084;18.762;2024-01-16T07:09:34;9.50;;;3.53;;
76459;SDS011;65299;46.084;18.762;2024-01-16T07:12:34;8.70;;;3.42;;
76459;SDS011;65299;46.084;18.762;2024-01-16T07:15:35;18.40;;;5.17;;
76459;SDS011;65299;46.084;18.762;2024-01-16T07:18:35;20.17;;;5.77;;
76459;SDS011;65299;46.084;18.762;2024-01-16T07:21:35;16.50;;;6.03;;
76459;SDS011;65299;46.084;18.762;2024-01-16T07:24:36;18.03;;;8.13;;
76459;SDS011;65299;46.084;18.762;2024-01-16T07:27:36;17.87;;;5.70;;
76459;SDS011;65299;46.084;18.762;2024-01-16T07:30:37;9.85;;;3.22;;
76459;SDS011;65299;46.084;18.762;2024-01-16T07:33:37;6.57;;;3.00;;
76459;SDS011;65299;46.084;18.762;2024-01-16T07:36:38;9.90;;;3.73;;
76459;SDS011;65299;46.084;18.762;2024-01-16T07:39:38;11.63;;;3.93;;
76459;SDS011;65299;46.084;18.762;2024-01-16T07:42:39;10.43;;;3.80;;
76459;SDS011;65299;46.084;18.762;2024-01-16T07:45:39;8.93;;;3.67;;
76459;SDS011;65299;46.084;18.762;2024-01-16T07:48:39;10.13;;;2.90;;
76459;SDS011;65299;46.084;18.762;2024-01-16T07:51:40;9.23;;;3.53;;
76459;SDS011;65299;46.084;18.762;2024-01-16T07:54:40;14.30;;;4.40;;
76459;SDS011;65299;46.084;18.762;2024-01-16T07:57:43;11.13;;;4.27;;
76459;SDS011;65299;46.084;18.762;2024-01-16T08:00:44;12.88;;;3.67;;
76459;SDS011;65299;46.084;18.762;2024-01-16T08:03:45;11.27;;;4.05;;
76459;SDS011;65299;46.084;18.762;2024-01-16T08:06:45;10.10;;;3.60;;
76459;SDS011;65299;46.084;18.762;2024-01-16T08:09:46;10.90;;;4.05;;
76459;SDS011;65299;46.084;18.762;2024-01-16T08:12:46;7.00;;;2.73;;
76459;SDS011;65299;46.084;18.762;2024-01-16T08:15:47;14.60;;;5.97;;
76459;SDS011;65299;46.084;18.762;2024-01-16T08:18:47;10.07;;;4.73;;
76459;SDS011;65299;46.084;18.762;2024-01-16T08:21:48;10.75;;;4.55;;
76459;SDS011;65299;46.084;18.762;2024-01-16T08:24:48;8.60;;;3.87;;
76459;SDS011;65299;46.084;18.762;2024-01-16T08:27:48;8.90;;;4.10;;
76459;SDS011;65299;46.084;18.762;2024-01-16T08:30:49;9.40;;;3.03;;
76459;SDS011;65299;46.084;18.762;2024-01-16T08:33:49;11.20;;;4.60;;
76459;SDS011;65299;46.084;18.762;2024-01-16T08:36:50;8.33;;;3.37;;
76459;SDS011;65299;46.084;18.762;2024-01-16T08:39:50;12.17;;;5.13;;
76459;SDS011;65299;46.084;18.762;2024-01-16T08:42:51;12.97;;;4.37;;
76459;SDS011;65299;46.084;18.762;2024-01-16T08:45:54;9.25;;;4.10;;
76459;SDS011;65299;46.084;18.762;2024-01-16T08:48:55;9.00;;;3.85;;
76459;SDS011;65299;46.084;18.762;2024-01-16T08:51:56;13.48;;;4.30;;
76459;SDS011;65299;46.084;18.762;2024-01-16T08:54:57;13.57;;;4.57;;
76459;SDS011;65299;46.084;18.762;2024-01-16T08:57:58;11.73;;;4.43;;
76459;SDS011;65299;46.084;18.762;2024-01-16T09:00:58;15.87;;;5.50;;
76459;SDS011;65299;46.084;18.762;2024-01-16T09:03:59;12.47;;;4.50;;
76459;SDS011;65299;46.084;18.762;2024-01-16T09:06:59;8.67;;;3.53;;
76459;SDS011;65299;46.084;18.762;2024-01-16T09:10:00;7.07;;;2.53;;
76459;SDS011;65299;46.084;18.762;2024-01-16T09:13:00;13.47;;;4.63;;
76459;SDS011;65299;46.084;18.762;2024-01-16T09:16:01;11.40;;;4.90;;
76459;SDS011;65299;46.084;18.762;2024-01-16T09:19:01;13.63;;;5.23;;
76459;SDS011;65299;46.084;18.762;2024-01-16T09:22:02;11.67;;;4.93;;
76459;SDS011;65299;46.084;18.762;2024-01-16T09:25:03;12.00;;;4.40;;
76459;SDS011;65299;46.084;18.762;2024-01-16T09:28:05;21.05;;;6.93;;
76459;SDS011;65299;46.084;18.762;2024-01-16T09:31:06;15.63;;;5.20;;
76459;SDS011;65299;46.084;18.762;2024-01-16T09:34:07;9.43;;;4.03;;
76459;SDS011;65299;46.084;18.762;2024-01-16T09:37:07;14.87;;;6.27;;
76459;SDS011;65299;46.084;18.762;2024-01-16T09:40:08;21.02;;;6.40;;
76459;SDS011;65299;46.084;18.762;2024-01-16T09:43:09;16.17;;;5.53;;
76459;SDS011;65299;46.084;18.762;2024-01-16T09:46:10;15.02;;;5.07;;
76459;SDS011;65299;46.084;18.762;2024-01-16T09:49:11;13.55;;;5.40;;
76459;SDS011;65299;46.084;18.762;2024-01-16T09:52:16;10.30;;;4.35;;
76459;SDS011;65299;46.084;18.762;2024-01-16T09:55:16;14.77;;;5.47;;
76459;SDS011;65299;46.084;18.762;2024-01-16T09:58:18;14.98;;;5.18;;
76459;SDS011;65299;46.084;18.762;2024-01-16T10:01:20;14.67;;;6.10;;
76459;SDS011;65299;46.084;18.762;2024-01-16T10:04:23;14.82;;;6.07;;
76459;SDS011;65299;46.084;18.762;2024-01-16T10:07:25;11.82;;;4.85;;
76459;SDS011;65299;46.084;18.762;2024-01-16T10:10:28;12.63;;;5.10;;
76459;SDS011;65299;46.084;18.762;2024-01-16T10:13:28;11.40;;;5.47;;
76459;SDS011;65299;46.084;18.762;2024-01-16T10:19:56;11.75;;;5.20;;
76459;SDS011;65299;46.084;18.762;2024-01-16T10:22:58;11.70;;;5.47;;
76459;SDS011;65299;46.084;18.762;2024-01-16T10:26:08;19.25;;;6.72;;
76459;SDS011;65299;46.084;18.762;2024-01-16T10:29:12;15.37;;;5.73;;
76459;SDS011;65299;46.084;18.762;2024-01-16T10:32:12;13.23;;;5.25;;
76459;SDS011;65299;46.084;18.762;2024-01-16T10:35:13;14.67;;;6.20;;
76459;SDS011;65299;46.084;18.762;2024-01-16T10:38:23;8.75;;;4.28;;
76459;SDS011;65299;46.084;18.762;2024-01-16T10:41:24;14.97;;;6.07;;
76459;SDS011;65299;46.084;18.762;2024-01-16T10:44:25;18.27;;;6.95;;
76459;SDS011;65299;46.084;18.762;2024-01-16T10:47:27;15.02;;;6.28;;
76459;SDS011;65299;46.084;18.762;2024-01-16T10:50:28;15.85;;;6.68;;
76459;SDS011;65299;46.084;18.762;2024-01-16T10:53:30;10.03;;;3.90;;
76459;SDS011;65299;46.084;18.762;2024-01-16T10:56:34;19.23;;;6.78;;
76459;SDS011;65299;46.084;18.762;2024-01-16T11:03:11;17.50;;;6.38;;
76459;SDS011;65299;46.084;18.762;2024-01-16T11:06:19;20.40;;;7.10;;
76459;SDS011;65299;46.084;18.762;2024-01-16T11:09:19;21.42;;;7.82;;
76459;SDS011;65299;46.084;18.762;2024-01-16T11:12:21;16.25;;;7.55;;
76459;SDS011;65299;46.084;18.762;2024-01-16T11:15:22;8.90;;;3.72;;
76459;SDS011;65299;46.084;18.762;2024-01-16T11:18:25;20.07;;;7.20;;
76459;SDS011;65299;46.084;18.762;2024-01-16T11:21:27;18.33;;;7.85;;
76459;SDS011;65299;46.084;18.762;2024-01-16T11:24:28;19.83;;;7.68;;
76459;SDS011;65299;46.084;18.762;2024-01-16T11:27:28;20.23;;;8.03;;
76459;SDS011;65299;46.084;18.762;2024-01-16T11:30:29;18.03;;;7.90;;
76459;SDS011;65299;46.084;18.762;2024-01-16T11:50:09;15.93;;;7.50;;
76459;SDS011;65299;46.084;18.762;2024-01-16T11:53:11;17.90;;;7.70;;
76459;SDS011;65299;46.084;18.762;2024-01-16T11:56:44;16.20;;;6.28;;
76459;SDS011;65299;46.084;18.762;2024-01-16T12:00:18;14.23;;;6.25;;
76459;SDS011;65299;46.084;18.762;2024-01-16T12:03:21;14.67;;;6.50;;
76459;SDS011;65299;46.084;18.762;2024-01-16T12:06:22;17.52;;;7.35;;
76459;SDS011;65299;46.084;18.762;2024-01-16T12:09:25;15.23;;;6.00;;
76459;SDS011;65299;46.084;18.762;2024-01-16T12:12:32;16.35;;;6.88;;
76459;SDS011;65299;46.084;18.762;2024-01-16T12:15:33;18.30;;;7.67;;
76459;SDS011;65299;46.084;18.762;2024-01-16T12:18:33;20.55;;;8.18;;
76459;SDS011;65299;46.084;18.762;2024-01-16T12:21:41;24.00;;;9.13;;
76459;SDS011;65299;46.084;18.762;2024-01-16T12:24:43;19.55;;;8.13;;
76459;SDS011;65299;46.084;18.762;2024-01-16T12:27:45;22.70;;;9.00;;
76459;SDS011;65299;46.084;18.762;2024-01-16T12:30:49;21.70;;;9.30;;
76459;SDS011;65299;46.084;18.762;2024-01-16T12:34:03;23.10;;;9.13;;
76459;SDS011;65299;46.084;18.762;2024-01-16T12:37:07;23.38;;;8.80;;
76459;SDS011;65299;46.084;18.762;2024-01-16T12:40:08;14.40;;;6.10;;
76459;SDS011;65299;46.084;18.762;2024-01-16T12:43:08;16.93;;;7.43;;
76459;SDS011;65299;46.084;18.762;2024-01-16T12:46:11;22.33;;;8.82;;
76459;SDS011;65299;46.084;18.762;2024-01-16T12:49:11;17.65;;;7.47;;
76459;SDS011;65299;46.084;18.762;2024-01-16T12:52:18;25.37;;;9.43;;
76459;SDS011;65299;46.084;18.762;2024-01-16T12:55:20;26.30;;;9.13;;
76459;SDS011;65299;46.084;18.762;2024-01-16T12:58:21;21.23;;;8.07;;
76459;SDS011;65299;46.084;18.762;2024-01-16T13:01:28;20.25;;;9.20;;
76459;SDS011;65299;46.084;18.762;2024-01-16T13:04:29;25.55;;;8.95;;
76459;SDS011;65299;46.084;18.762;2024-01-16T13:07:30;18.77;;;7.07;;
76459;SDS011;65299;46.084;18.762;2024-01-16T13:10:33;22.65;;;9.20;;
76459;SDS011;65299;46.084;18.762;2024-01-16T13:13:33;21.77;;;9.50;;
76459;SDS011;65299;46.084;18.762;2024-01-16T13:16:34;20.90;;;7.93;;
76459;SDS011;65299;46.084;18.762;2024-01-16T13:19:34;22.65;;;8.52;;
76459;SDS011;65299;46.084;18.762;2024-01-16T13:22:36;27.23;;;9.77;;
76459;SDS011;65299;46.084;18.762;2024-01-16T13:25:36;20.85;;;7.90;;
76459;SDS011;65299;46.084;18.762;2024-01-16T13:28:37;28.40;;;10.00;;
76459;SDS011;65299;46.084;18.762;2024-01-16T13:31:37;27.33;;;10.77;;
76459;SDS011;65299;46.084;18.762;2024-01-16T13:34:38;24.67;;;8.90;;
76459;SDS011;65299;46.084;18.762;2024-01-16T13:37:42;33.17;;;10.93;;
76459;SDS011;65299;46.084;18.762;2024-01-16T13:40:43;19.17;;;8.73;;
76459;SDS011;65299;46.084;18.762;2024-01-16T13:43:43;28.37;;;9.60;;
76459;SDS011;65299;46.084;18.762;2024-01-16T13:46:44;30.23;;;10.07;;
76459;SDS011;65299;46.084;18.762;2024-01-16T13:49:44;32.00;;;10.80;;
76459;SDS011;65299;46.084;18.762;2024-01-16T13:52:45;29.47;;;10.50;;
76459;SDS011;65299;46.084;18.762;2024-01-16T13:55:46;27.40;;;10.07;;
76459;SDS011;65299;46.084;18.762;2024-01-16T13:58:46;30.43;;;11.07;;
76459;SDS011;65299;46.084;18.762;2024-01-16T14:01:46;36.10;;;13.07;;
76459;SDS011;65299;46.084;18.762;2024-01-16T14:04:47;32.97;;;10.60;;
76459;SDS011;65299;46.084;18.762;2024-01-16T14:07:51;25.42;;;9.93;;
76459;SDS011;65299;46.084;18.762;2024-01-16T14:10:52;26.88;;;9.20;;
76459;SDS011;65299;46.084;18.762;2024-01-16T14:13:52;27.30;;;9.40;;
76459;SDS011;65299;46.084;18.762;2024-01-16T14:16:53;20.37;;;7.90;;
76459;SDS011;65299;46.084;18.762;2024-01-16T14:19:54;24.95;;;9.05;;
76459;SDS011;65299;46.084;18.762;2024-01-16T14:22:54;20.63;;;7.40;;
76459;SDS011;65299;46.084;18.762;2024-01-16T14:25:56;21.77;;;7.45;;
76459;SDS011;65299;46.084;18.762;2024-01-16T14:28:56;22.23;;;6.87;;
76459;SDS011;65299;46.084;18.762;2024-01-16T14:31:56;22.77;;;8.60;;
76459;SDS011;65299;46.084;18.762;2024-01-16T14:34:58;20.90;;;7.65;;
76459;SDS011;65299;46.084;18.762;2024-01-16T14:37:59;19.57;;;6.57;;
76459;SDS011;65299;46.084;18.762;2024-01-16T14:40:59;15.87;;;6.70;;
76459;SDS011;65299;46.084;18.762;2024-01-16T14:44:00;24.53;;;7.83;;
76459;SDS011;65299;46.084;18.762;2024-01-16T14:47:00;20.40;;;7.37;;
76459;SDS011;65299;46.084;18.762;2024-01-16T14:50:00;18.58;;;6.75;;
76459;SDS011;65299;46.084;18.762;2024-01-16T14:53:03;8.00;;;3.13;;
76459;SDS011;65299;46.084;18.762;2024-01-16T14:56:05;14.68;;;5.47;;
76459;SDS011;65299;46.084;18.762;2024-01-16T14:59:06;22.20;;;7.43;;
76459;SDS011;65299;46.084;18.762;2024-01-16T15:02:07;10.63;;;4.33;;
76459;SDS011;65299;46.084;18.762;2024-01-16T15:05:16;17.70;;;6.00;;
76459;SDS011;65299;46.084;18.762;2024-01-16T15:08:16;13.63;;;5.73;;
76459;SDS011;65299;46.084;18.762;2024-01-16T15:11:17;14.77;;;5.85;;
76459;SDS011;65299;46.084;18.762;2024-01-16T15:14:17;12.13;;;6.10;;
76459;SDS011;65299;46.084;18.762;2024-01-16T15:17:18;13.40;;;4.13;;
76459;SDS011;65299;46.084;18.762;2024-01-16T15:20:18;7.53;;;3.53;;
76459;SDS011;65299;46.084;18.762;2024-01-16T15:23:19;10.90;;;5.50;;
76459;SDS011;65299;46.084;18.762;2024-01-16T15:26:19;9.37;;;4.93;;
76459;SDS011;65299;46.084;18.762;2024-01-16T15:29:20;15.23;;;6.68;;
76459;SDS011;65299;46.084;18.762;2024-01-16T15:32:21;17.07;;;6.30;;
76459;SDS011;65299;46.084;18.762;2024-01-16T15:35:22;14.82;;;7.07;;
76459;SDS011;65299;46.084;18.762;2024-01-16T15:38:22;19.57;;;8.10;;
76459;SDS011;65299;46.084;18.762;2024-01-16T15:41:23;29.38;;;9.80;;
76459;SDS011;65299;46.084;18.762;2024-01-16T15:44:23;15.23;;;5.00;;
76459;SDS011;65299;46.084;18.762;2024-01-16T15:47:24;15.57;;;5.33;;
76459;SDS011;65299;46.084;18.762;2024-01-16T15:50:24;11.33;;;4.50;;
76459;SDS011;65299;46.084;18.762;2024-01-16T15:53:26;13.82;;;4.65;;
76459;SDS011;65299;46.084;18.762;2024-01-16T15:56:27;14.17;;;5.67;;
76459;SDS011;65299;46.084;18.762;2024-01-16T15:59:27;12.27;;;4.82;;
76459;SDS011;65299;46.084;18.762;2024-01-16T16:02:28;12.33;;;4.67;;
76459;SDS011;65299;46.084;18.762;2024-01-16T16:05:28;14.17;;;4.97;;
76459;SDS011;65299;46.084;18.762;2024-01-16T16:08:28;15.37;;;6.40;;
76459;SDS011;65299;46.084;18.762;2024-01-16T16:11:38;13.10;;;5.30;;
76459;SDS011;65299;46.084;18.762;2024-01-16T16:14:46;15.63;;;6.55;;
76459;SDS011;65299;46.084;18.762;2024-01-16T16:17:47;16.10;;;6.07;;
76459;SDS011;65299;46.084;18.762;2024-01-16T16:20:47;17.37;;;6.87;;
76459;SDS011;65299;46.084;18.762;2024-01-16T16:23:48;17.38;;;6.32;;
76459;SDS011;65299;46.084;18.762;2024-01-16T16:26:48;16.93;;;5.83;;
76459;SDS011;65299;46.084;18.762;2024-01-16T16:29:49;12.32;;;4.82;;
76459;SDS011;65299;46.084;18.762;2024-01-16T16:32:49;16.53;;;5.73;;
76459;SDS011;65299;46.084;18.762;2024-01-16T16:35:50;21.20;;;7.10;;
76459;SDS011;65299;46.084;18.762;2024-01-16T16:38:50;13.00;;;5.90;;
76459;SDS011;65299;46.084;18.762;2024-01-16T16:41:51;18.67;;;7.38;;
76459;SDS011;65299;46.084;18.762;2024-01-16T16:44:51;12.73;;;5.43;;
76459;SDS011;65299;46.084;18.762;2024-01-16T16:47:52;13.93;;;5.80;;
76459;SDS011;65299;46.084;18.762;2024-01-16T16:50:52;16.00;;;7.00;;
76459;SDS011;65299;46.084;18.762;2024-01-16T16:53:53;15.10;;;5.50;;
76459;SDS011;65299;46.084;18.762;2024-01-16T16:56:54;15.02;;;5.43;;
76459;SDS011;65299;46.084;18.762;2024-01-16T16:59:54;9.53;;;4.27;;
76459;SDS011;65299;46.084;18.762;2024-01-16T17:02:55;12.77;;;4.90;;
76459;SDS011;65299;46.084;18.762;2024-01-16T17:05:55;14.20;;;5.00;;
76459;SDS011;65299;46.084;18.762;2024-01-16T17:08:57;15.20;;;6.07;;
76459;SDS011;65299;46.084;18.762;2024-01-16T17:11:58;11.90;;;4.32;;
76459;SDS011;65299;46.084;18.762;2024-01-16T17:14:59;17.42;;;6.45;;
76459;SDS011;65299;46.084;18.762;2024-01-16T17:18:00;16.93;;;6.43;;
76459;SDS011;65299;46.084;18.762;2024-01-16T17:21:00;18.70;;;6.10;;
76459;SDS011;65299;46.084;18.762;2024-01-16T17:24:01;22.23;;;7.35;;
76459;SDS011;65299;46.084;18.762;2024-01-16T17:27:03;18.40;;;6.88;;
76459;SDS011;65299;46.084;18.762;2024-01-16T17:30:04;18.53;;;6.53;;
76459;SDS011;65299;46.084;18.762;2024-01-16T17:33:08;17.52;;;7.60;;
76459;SDS011;65299;46.084;18.762;2024-01-16T17:36:08;19.75;;;8.13;;
76459;SDS011;65299;46.084;18.762;2024-01-16T17:39:13;22.50;;;9.57;;
76459;SDS011;65299;46.084;18.762;2024-01-16T17:42:15;19.75;;;7.55;;
76459;SDS011;65299;46.084;18.762;2024-01-16T17:45:15;16.63;;;6.30;;
76459;SDS011;65299;46.084;18.762;2024-01-16T17:48:16;20.77;;;6.72;;
76459;SDS011;65299;46.084;18.762;2024-01-16T17:51:17;14.38;;;5.93;;
76459;SDS011;65299;46.084;18.762;2024-01-16T17:54:17;20.63;;;7.87;;
76459;SDS011;65299;46.084;18.762;2024-01-16T17:57:17;13.93;;;5.87;;
76459;SDS011;65299;46.084;18.762;2024-01-16T18:00:18;11.93;;;5.10;;
76459;SDS011;65299;46.084;18.762;2024-01-16T18:03:22;15.15;;;5.03;;
76459;SDS011;65299;46.084;18.762;2024-01-16T18:06:26;11.88;;;4.72;;
76459;SDS011;65299;46.084;18.762;2024-01-16T18:09:27;13.83;;;5.67;;